sensor_id;sensor_type;location;lat;lon;timestamp;pressure;altitude;pressure_sealevel;temperature;humidity
498;BME280;39559;48.630;9.162;2023-03-14T00:01:15;95957.13;;;7.73;100.00
498;BME280;39559;48.630;9.162;2023-03-14T00:03:43;95932.31;;;7.70;100.00
498;BME280;39559;48.630;9.162;2023-03-14T00:07:52;95899.03;;;7.80;100.00
498;BME280;39559;48.630;9.162;2023-03-14T00:10:17;95904.19;;;7.80;100.00
498;BME280;39559;48.630;9.162;2023-03-14T00:12:43;95882.69;;;7.79;100.00
498;BME280;39559;48.630;9.162;2023-03-14T00:15:10;95858.63;;;7.79;100.00
498;BME280;39559;48.630;9.162;2023-03-14T00:17:37;95891.09;;;7.83;100.00
498;BME280;39559;48.630;9.162;2023-03-14T00:20:04;95885.19;;;7.81;100.00
498;BME280;39559;48.630;9.162;2023-03-14T00:22:34;95870.53;;;7.81;100.00
498;BME280;39559;48.630;9.162;2023-03-14T00:25:02;95878.19;;;7.83;100.00
498;BME280;39559;48.630;9.162;2023-03-14T00:27:27;95865.28;;;7.83;100.00
498;BME280;39559;48.630;9.162;2023-03-14T00:31:49;95876.66;;;7.64;100.00
498;BME280;39559;48.630;9.162;2023-03-14T00:34:15;95870.88;;;7.75;100.00
498;BME280;39559;48.630;9.162;2023-03-14T00:36:40;95883.59;;;7.78;100.00
498;BME280;39559;48.630;9.162;2023-03-14T00:39:06;95871.44;;;7.80;100.00
498;BME280;39559;48.630;9.162;2023-03-14T00:41:31;95875.69;;;7.81;100.00
498;BME280;39559;48.630;9.162;2023-03-14T00:43:57;95864.16;;;7.87;100.00
498;BME280;39559;48.630;9.162;2023-03-14T00:46:22;95880.19;;;7.78;100.00
498;BME280;39559;48.630;9.162;2023-03-14T00:48:48;95879.53;;;7.74;100.00
498;BME280;39559;48.630;9.162;2023-03-14T00:51:14;95882.56;;;7.66;100.00
498;BME280;39559;48.630;9.162;2023-03-14T00:55:46;95878.34;;;7.80;100.00
498;BME280;39559;48.630;9.162;2023-03-14T00:58:14;95887.03;;;7.79;100.00
498;BME280;39559;48.630;9.162;2023-03-14T01:00:41;95886.09;;;7.80;100.00
498;BME280;39559;48.630;9.162;2023-03-14T01:03:07;95888.34;;;7.86;100.00
498;BME280;39559;48.630;9.162;2023-03-14T01:05:33;95893.78;;;7.81;100.00
498;BME280;39559;48.630;9.162;2023-03-14T01:07:59;95888.59;;;7.81;100.00
498;BME280;39559;48.630;9.162;2023-03-14T01:10:25;95884.34;;;7.80;100.00
498;BME280;39559;48.630;9.162;2023-03-14T01:12:51;95890.44;;;7.79;100.00
498;BME280;39559;48.630;9.162;2023-03-14T01:15:16;95882.03;;;7.76;100.00
498;BME280;39559;48.630;9.162;2023-03-14T01:19:47;95872.38;;;7.79;100.00
498;BME280;39559;48.630;9.162;2023-03-14T01:22:13;95865.53;;;7.78;100.00
498;BME280;39559;48.630;9.162;2023-03-14T01:24:39;95851.84;;;7.76;100.00
498;BME280;39559;48.630;9.162;2023-03-14T01:27:05;95845.28;;;7.71;100.00
498;BME280;39559;48.630;9.162;2023-03-14T01:29:30;95850.75;;;7.66;100.00
498;BME280;39559;48.630;9.162;2023-03-14T01:31:56;95847.31;;;7.65;100.00
498;BME280;39559;48.630;9.162;2023-03-14T01:34:22;95852.97;;;7.72;100.00
498;BME280;39559;48.630;9.162;2023-03-14T01:36:47;95844.03;;;7.78;100.00
498;BME280;39559;48.630;9.162;2023-03-14T01:39:13;95845.69;;;7.79;100.00
498;BME280;39559;48.630;9.162;2023-03-14T01:43:41;95825.03;;;7.79;100.00
498;BME280;39559;48.630;9.162;2023-03-14T01:48:42;95820.84;;;7.76;100.00
498;BME280;39559;48.630;9.162;2023-03-14T01:51:12;95812.00;;;7.66;100.00
498;BME280;39559;48.630;9.162;2023-03-14T01:53:41;95808.56;;;7.65;100.00
498;BME280;39559;48.630;9.162;2023-03-14T01:56:11;95804.41;;;7.63;100.00
498;BME280;39559;48.630;9.162;2023-03-14T01:58:40;95805.06;;;7.66;100.00
498;BME280;39559;48.630;9.162;2023-03-14T02:01:08;95812.66;;;7.69;100.00
498;BME280;39559;48.630;9.162;2023-03-14T02:03:44;95806.72;;;7.67;100.00
498;BME280;39559;48.630;9.162;2023-03-14T02:07:55;95811.63;;;7.72;100.00
498;BME280;39559;48.630;9.162;2023-03-14T02:10:24;95819.41;;;7.56;100.00
498;BME280;39559;48.630;9.162;2023-03-14T02:12:52;95815.94;;;7.57;100.00
498;BME280;39559;48.630;9.162;2023-03-14T02:15:20;95804.13;;;7.53;100.00
498;BME280;39559;48.630;9.162;2023-03-14T02:17:46;95809.28;;;7.53;100.00
498;BME280;39559;48.630;9.162;2023-03-14T02:20:22;95805.28;;;7.47;100.00
498;BME280;39559;48.630;9.162;2023-03-14T02:22:51;95789.03;;;7.45;100.00
498;BME280;39559;48.630;9.162;2023-03-14T02:25:41;95778.06;;;7.42;100.00
498;BME280;39559;48.630;9.162;2023-03-14T02:28:09;95770.06;;;7.46;100.00
498;BME280;39559;48.630;9.162;2023-03-14T02:31:37;95771.63;;;7.49;100.00
498;BME280;39559;48.630;9.162;2023-03-14T02:34:03;95773.47;;;7.47;100.00
498;BME280;39559;48.630;9.162;2023-03-14T02:36:30;95772.63;;;7.46;100.00
498;BME280;39559;48.630;9.162;2023-03-14T02:42:01;95766.44;;;7.49;100.00
498;BME280;39559;48.630;9.162;2023-03-14T02:44:27;95752.25;;;7.56;100.00
498;BME280;39559;48.630;9.162;2023-03-14T02:46:53;95762.78;;;7.53;100.00
498;BME280;39559;48.630;9.162;2023-03-14T02:49:18;95754.47;;;7.48;100.00
498;BME280;39559;48.630;9.162;2023-03-14T02:51:45;95741.28;;;7.53;100.00
498;BME280;39559;48.630;9.162;2023-03-14T02:55:35;95744.97;;;7.48;100.00
498;BME280;39559;48.630;9.162;2023-03-14T02:58:00;95742.94;;;7.54;100.00
498;BME280;39559;48.630;9.162;2023-03-14T03:00:26;95744.16;;;7.48;100.00
498;BME280;39559;48.630;9.162;2023-03-14T03:02:51;95741.00;;;7.43;100.00
498;BME280;39559;48.630;9.162;2023-03-14T03:05:17;95750.31;;;7.45;100.00
498;BME280;39559;48.630;9.162;2023-03-14T03:07:42;95744.03;;;7.35;100.00
498;BME280;39559;48.630;9.162;2023-03-14T03:10:08;95736.47;;;7.46;100.00
498;BME280;39559;48.630;9.162;2023-03-14T03:12:34;95723.00;;;7.41;100.00
498;BME280;39559;48.630;9.162;2023-03-14T03:15:00;95717.34;;;7.35;100.00
498;BME280;39559;48.630;9.162;2023-03-14T03:19:33;95712.03;;;7.38;100.00
498;BME280;39559;48.630;9.162;2023-03-14T03:21:59;95715.34;;;7.40;100.00
498;BME280;39559;48.630;9.162;2023-03-14T03:24:25;95715.50;;;7.37;100.00
498;BME280;39559;48.630;9.162;2023-03-14T03:26:51;95718.56;;;7.43;100.00
498;BME280;39559;48.630;9.162;2023-03-14T03:29:17;95701.31;;;7.44;100.00
498;BME280;39559;48.630;9.162;2023-03-14T03:31:42;95706.13;;;7.36;100.00
498;BME280;39559;48.630;9.162;2023-03-14T03:34:11;95693.78;;;7.41;100.00
498;BME280;39559;48.630;9.162;2023-03-14T03:36:37;95686.75;;;7.28;100.00
498;BME280;39559;48.630;9.162;2023-03-14T03:39:03;95676.31;;;7.30;100.00
498;BME280;39559;48.630;9.162;2023-03-14T03:43:30;95676.78;;;7.37;100.00
498;BME280;39559;48.630;9.162;2023-03-14T03:45:56;95690.47;;;7.08;100.00
498;BME280;39559;48.630;9.162;2023-03-14T03:48:21;95670.44;;;7.42;100.00
498;BME280;39559;48.630;9.162;2023-03-14T03:50:47;95672.06;;;7.29;100.00
498;BME280;39559;48.630;9.162;2023-03-14T03:53:13;95677.78;;;7.34;100.00
498;BME280;39559;48.630;9.162;2023-03-14T03:55:41;95670.13;;;7.33;100.00
498;BME280;39559;48.630;9.162;2023-03-14T03:58:07;95666.91;;;7.29;100.00
498;BME280;39559;48.630;9.162;2023-03-14T04:00:33;95666.09;;;7.28;100.00
498;BME280;39559;48.630;9.162;2023-03-14T04:02:59;95674.63;;;7.15;100.00
498;BME280;39559;48.630;9.162;2023-03-14T04:07:28;95664.78;;;7.21;100.00
498;BME280;39559;48.630;9.162;2023-03-14T04:09:53;95669.56;;;7.27;100.00
498;BME280;39559;48.630;9.162;2023-03-14T04:12:19;95676.38;;;7.14;100.00
498;BME280;39559;48.630;9.162;2023-03-14T04:14:45;95671.06;;;7.17;100.00
498;BME280;39559;48.630;9.162;2023-03-14T04:17:11;95667.00;;;7.27;100.00
498;BME280;39559;48.630;9.162;2023-03-14T04:19:36;95659.50;;;7.08;100.00
498;BME280;39559;48.630;9.162;2023-03-14T04:22:02;95658.31;;;7.14;100.00
498;BME280;39559;48.630;9.162;2023-03-14T04:24:27;95658.03;;;7.04;100.00
498;BME280;39559;48.630;9.162;2023-03-14T04:26:53;95663.31;;;7.17;100.00
498;BME280;39559;48.630;9.162;2023-03-14T04:31:28;95645.56;;;7.11;100.00
498;BME280;39559;48.630;9.162;2023-03-14T04:33:53;95642.53;;;7.04;100.00
498;BME280;39559;48.630;9.162;2023-03-14T04:36:19;95638.56;;;6.99;100.00
498;BME280;39559;48.630;9.162;2023-03-14T04:38:45;95638.13;;;7.06;100.00
498;BME280;39559;48.630;9.162;2023-03-14T04:41:10;95634.16;;;7.01;100.00
498;BME280;39559;48.630;9.162;2023-03-14T04:43:36;95629.19;;;7.12;100.00
498;BME280;39559;48.630;9.162;2023-03-14T04:46:02;95622.16;;;7.00;100.00
498;BME280;39559;48.630;9.162;2023-03-14T04:48:29;95610.53;;;6.92;100.00
498;BME280;39559;48.630;9.162;2023-03-14T04:50:56;95607.66;;;6.83;100.00
498;BME280;39559;48.630;9.162;2023-03-14T04:55:24;95604.78;;;6.87;100.00
498;BME280;39559;48.630;9.162;2023-03-14T04:57:50;95600.41;;;6.89;100.00
498;BME280;39559;48.630;9.162;2023-03-14T05:00:16;95597.44;;;6.96;100.00
498;BME280;39559;48.630;9.162;2023-03-14T05:02:45;95587.75;;;6.85;100.00
498;BME280;39559;48.630;9.162;2023-03-14T05:05:11;95588.25;;;6.91;100.00
498;BME280;39559;48.630;9.162;2023-03-14T05:07:37;95587.00;;;6.83;100.00
498;BME280;39559;48.630;9.162;2023-03-14T05:10:03;95583.13;;;6.76;100.00
498;BME280;39559;48.630;9.162;2023-03-14T05:12:29;95574.69;;;6.88;100.00
498;BME280;39559;48.630;9.162;2023-03-14T05:14:54;95564.81;;;6.95;100.00
498;BME280;39559;48.630;9.162;2023-03-14T05:19:23;95567.50;;;6.93;100.00
498;BME280;39559;48.630;9.162;2023-03-14T05:21:48;95558.97;;;6.77;100.00
498;BME280;39559;48.630;9.162;2023-03-14T05:24:14;95561.31;;;6.81;100.00
498;BME280;39559;48.630;9.162;2023-03-14T05:26:40;95556.34;;;6.92;100.00
498;BME280;39559;48.630;9.162;2023-03-14T05:29:06;95554.16;;;7.01;100.00
498;BME280;39559;48.630;9.162;2023-03-14T05:31:31;95552.84;;;6.94;100.00
498;BME280;39559;48.630;9.162;2023-03-14T05:33:57;95553.94;;;7.04;100.00
498;BME280;39559;48.630;9.162;2023-03-14T05:36:23;95545.28;;;6.90;100.00
498;BME280;39559;48.630;9.162;2023-03-14T05:38:48;95543.19;;;6.97;100.00
498;BME280;39559;48.630;9.162;2023-03-14T05:43:21;95547.47;;;6.97;100.00
498;BME280;39559;48.630;9.162;2023-03-14T05:45:46;95542.69;;;6.90;100.00
498;BME280;39559;48.630;9.162;2023-03-14T05:48:12;95529.81;;;6.90;100.00
498;BME280;39559;48.630;9.162;2023-03-14T05:50:38;95537.63;;;7.03;100.00
498;BME280;39559;48.630;9.162;2023-03-14T05:53:03;95538.75;;;6.99;100.00
498;BME280;39559;48.630;9.162;2023-03-14T05:55:29;95527.59;;;7.13;100.00
498;BME280;39559;48.630;9.162;2023-03-14T05:57:54;95527.03;;;6.94;100.00
498;BME280;39559;48.630;9.162;2023-03-14T06:00:20;95531.81;;;7.00;100.00
498;BME280;39559;48.630;9.162;2023-03-14T06:02:46;95531.47;;;7.06;100.00
498;BME280;39559;48.630;9.162;2023-03-14T06:07:18;95549.00;;;7.15;100.00
498;BME280;39559;48.630;9.162;2023-03-14T06:09:44;95538.38;;;7.20;100.00
498;BME280;39559;48.630;9.162;2023-03-14T06:12:09;95548.25;;;7.13;100.00
498;BME280;39559;48.630;9.162;2023-03-14T06:14:35;95543.34;;;7.08;100.00
498;BME280;39559;48.630;9.162;2023-03-14T06:17:00;95549.25;;;7.10;100.00
498;BME280;39559;48.630;9.162;2023-03-14T06:19:26;95547.88;;;7.19;100.00
498;BME280;39559;48.630;9.162;2023-03-14T06:21:52;95544.00;;;7.26;100.00
498;BME280;39559;48.630;9.162;2023-03-14T06:24:17;95546.59;;;7.26;100.00
498;BME280;39559;48.630;9.162;2023-03-14T06:26:43;95546.13;;;7.20;100.00
498;BME280;39559;48.630;9.162;2023-03-14T06:31:17;95547.41;;;7.13;100.00
498;BME280;39559;48.630;9.162;2023-03-14T06:33:43;95534.03;;;7.20;100.00
498;BME280;39559;48.630;9.162;2023-03-14T06:36:09;95533.50;;;7.15;100.00
498;BME280;39559;48.630;9.162;2023-03-14T06:38:34;95538.28;;;7.07;100.00
498;BME280;39559;48.630;9.162;2023-03-14T06:41:07;95540.38;;;7.00;100.00
498;BME280;39559;48.630;9.162;2023-03-14T06:43:33;95543.63;;;6.89;100.00
498;BME280;39559;48.630;9.162;2023-03-14T06:45:58;95538.66;;;7.01;100.00
498;BME280;39559;48.630;9.162;2023-03-14T06:48:24;95536.41;;;6.80;100.00
498;BME280;39559;48.630;9.162;2023-03-14T06:50:49;95547.22;;;7.01;100.00
498;BME280;39559;48.630;9.162;2023-03-14T06:55:16;95536.81;;;7.46;100.00
498;BME280;39559;48.630;9.162;2023-03-14T06:57:42;95540.38;;;7.43;100.00
498;BME280;39559;48.630;9.162;2023-03-14T07:00:11;95545.63;;;7.56;100.00
498;BME280;39559;48.630;9.162;2023-03-14T07:02:36;95544.88;;;7.68;100.00
498;BME280;39559;48.630;9.162;2023-03-14T07:05:07;95549.22;;;7.68;100.00
498;BME280;39559;48.630;9.162;2023-03-14T07:07:35;95554.94;;;7.73;100.00
498;BME280;39559;48.630;9.162;2023-03-14T07:10:05;95555.16;;;7.83;100.00
498;BME280;39559;48.630;9.162;2023-03-14T07:12:31;95551.22;;;8.04;100.00
498;BME280;39559;48.630;9.162;2023-03-14T07:14:56;95555.19;;;8.10;100.00
498;BME280;39559;48.630;9.162;2023-03-14T07:19:14;95558.03;;;8.33;100.00
498;BME280;39559;48.630;9.162;2023-03-14T07:21:40;95558.97;;;8.32;100.00
498;BME280;39559;48.630;9.162;2023-03-14T07:24:06;95559.72;;;8.34;100.00
498;BME280;39559;48.630;9.162;2023-03-14T07:26:31;95572.63;;;8.34;100.00
498;BME280;39559;48.630;9.162;2023-03-14T07:28:57;95567.56;;;8.59;100.00
498;BME280;39559;48.630;9.162;2023-03-14T07:31:23;95562.69;;;8.68;100.00
498;BME280;39559;48.630;9.162;2023-03-14T07:33:49;95565.97;;;8.97;100.00
498;BME280;39559;48.630;9.162;2023-03-14T07:36:14;95570.28;;;9.22;100.00
498;BME280;39559;48.630;9.162;2023-03-14T07:38:40;95570.06;;;9.38;100.00
498;BME280;39559;48.630;9.162;2023-03-14T07:43:12;95575.06;;;9.78;100.00
498;BME280;39559;48.630;9.162;2023-03-14T07:45:38;95570.72;;;9.78;100.00
498;BME280;39559;48.630;9.162;2023-03-14T07:48:04;95580.16;;;9.79;100.00
498;BME280;39559;48.630;9.162;2023-03-14T07:50:29;95583.22;;;9.48;100.00
498;BME280;39559;48.630;9.162;2023-03-14T07:52:55;95584.81;;;9.12;100.00
498;BME280;39559;48.630;9.162;2023-03-14T07:55:20;95576.72;;;9.16;100.00
498;BME280;39559;48.630;9.162;2023-03-14T07:57:46;95575.47;;;9.09;100.00
498;BME280;39559;48.630;9.162;2023-03-14T08:00:12;95572.38;;;9.04;100.00
498;BME280;39559;48.630;9.162;2023-03-14T08:02:40;95575.06;;;9.15;100.00
498;BME280;39559;48.630;9.162;2023-03-14T08:07:11;95577.94;;;9.49;100.00
498;BME280;39559;48.630;9.162;2023-03-14T08:09:36;95582.13;;;9.76;100.00
498;BME280;39559;48.630;9.162;2023-03-14T08:12:02;95577.72;;;9.52;100.00
498;BME280;39559;48.630;9.162;2023-03-14T08:14:27;95581.22;;;9.51;100.00
498;BME280;39559;48.630;9.162;2023-03-14T08:16:54;95578.78;;;9.50;100.00
498;BME280;39559;48.630;9.162;2023-03-14T08:19:20;95576.38;;;9.47;100.00
498;BME280;39559;48.630;9.162;2023-03-14T08:21:46;95578.16;;;9.46;100.00
498;BME280;39559;48.630;9.162;2023-03-14T08:24:11;95572.03;;;9.47;100.00
498;BME280;39559;48.630;9.162;2023-03-14T08:26:37;95576.53;;;9.69;100.00
498;BME280;39559;48.630;9.162;2023-03-14T08:31:09;95576.16;;;10.24;100.00
498;BME280;39559;48.630;9.162;2023-03-14T08:33:35;95587.81;;;10.18;100.00
498;BME280;39559;48.630;9.162;2023-03-14T08:36:01;95582.31;;;10.23;100.00
498;BME280;39559;48.630;9.162;2023-03-14T08:38:27;95569.00;;;10.27;100.00
498;BME280;39559;48.630;9.162;2023-03-14T08:40:59;95583.41;;;10.31;100.00
498;BME280;39559;48.630;9.162;2023-03-14T08:43:26;95575.09;;;10.39;100.00
498;BME280;39559;48.630;9.162;2023-03-14T08:45:52;95575.25;;;10.49;100.00
498;BME280;39559;48.630;9.162;2023-03-14T08:48:17;95590.69;;;10.39;99.52
498;BME280;39559;48.630;9.162;2023-03-14T08:50:45;95594.81;;;10.42;96.28
498;BME280;39559;48.630;9.162;2023-03-14T08:55:09;95603.81;;;10.49;94.25
498;BME280;39559;48.630;9.162;2023-03-14T08:57:35;95620.09;;;10.51;96.14
498;BME280;39559;48.630;9.162;2023-03-14T09:00:04;95638.16;;;10.52;96.66
498;BME280;39559;48.630;9.162;2023-03-14T09:02:38;95628.00;;;10.12;99.23
498;BME280;39559;48.630;9.162;2023-03-14T09:05:04;95625.19;;;10.15;100.00
498;BME280;39559;48.630;9.162;2023-03-14T09:07:30;95630.84;;;9.84;100.00
498;BME280;39559;48.630;9.162;2023-03-14T09:09:56;95633.91;;;9.65;100.00
498;BME280;39559;48.630;9.162;2023-03-14T09:12:21;95624.53;;;9.75;100.00
498;BME280;39559;48.630;9.162;2023-03-14T09:14:47;95626.59;;;9.95;100.00
498;BME280;39559;48.630;9.162;2023-03-14T09:19:06;95619.47;;;9.86;100.00
498;BME280;39559;48.630;9.162;2023-03-14T09:21:31;95621.16;;;9.98;100.00
498;BME280;39559;48.630;9.162;2023-03-14T09:23:57;95609.97;;;9.98;100.00
498;BME280;39559;48.630;9.162;2023-03-14T09:26:23;95617.34;;;10.04;100.00
498;BME280;39559;48.630;9.162;2023-03-14T09:28:48;95614.13;;;10.01;100.00
498;BME280;39559;48.630;9.162;2023-03-14T09:31:14;95630.59;;;10.12;100.00
498;BME280;39559;48.630;9.162;2023-03-14T09:33:40;95624.38;;;10.02;100.00
498;BME280;39559;48.630;9.162;2023-03-14T09:36:07;95638.09;;;9.91;100.00
498;BME280;39559;48.630;9.162;2023-03-14T09:38:33;95636.72;;;9.98;100.00
498;BME280;39559;48.630;9.162;2023-03-14T09:43:11;95646.09;;;9.88;100.00
498;BME280;39559;48.630;9.162;2023-03-14T09:45:40;95652.22;;;9.87;99.56
498;BME280;39559;48.630;9.162;2023-03-14T09:48:15;95661.66;;;9.88;100.00
498;BME280;39559;48.630;9.162;2023-03-14T09:50:44;95660.94;;;9.86;99.89
498;BME280;39559;48.630;9.162;2023-03-14T09:53:18;95659.16;;;9.87;100.00
498;BME280;39559;48.630;9.162;2023-03-14T09:55:45;95656.66;;;9.85;100.00
498;BME280;39559;48.630;9.162;2023-03-14T09:58:16;95660.84;;;9.88;100.00
498;BME280;39559;48.630;9.162;2023-03-14T10:00:43;95668.19;;;9.94;100.00
498;BME280;39559;48.630;9.162;2023-03-14T10:03:42;95665.06;;;9.89;100.00
498;BME280;39559;48.630;9.162;2023-03-14T10:07:02;95671.50;;;9.96;100.00
498;BME280;39559;48.630;9.162;2023-03-14T10:09:28;95663.59;;;9.97;100.00
498;BME280;39559;48.630;9.162;2023-03-14T10:11:56;95658.94;;;10.03;99.55
498;BME280;39559;48.630;9.162;2023-03-14T10:14:33;95651.44;;;10.11;100.00
498;BME280;39559;48.630;9.162;2023-03-14T10:17:08;95642.63;;;10.13;98.73
498;BME280;39559;48.630;9.162;2023-03-14T10:19:36;95643.97;;;10.19;100.00
498;BME280;39559;48.630;9.162;2023-03-14T10:22:04;95625.00;;;10.43;99.61
498;BME280;39559;48.630;9.162;2023-03-14T10:24:33;95621.72;;;10.41;96.77
498;BME280;39559;48.630;9.162;2023-03-14T10:31:00;95618.34;;;10.51;92.05
498;BME280;39559;48.630;9.162;2023-03-14T10:33:29;95634.44;;;10.44;97.17
498;BME280;39559;48.630;9.162;2023-03-14T10:35:59;95634.72;;;10.52;96.00
498;BME280;39559;48.630;9.162;2023-03-14T10:38:28;95628.00;;;10.73;95.24
498;BME280;39559;48.630;9.162;2023-03-14T10:40:55;95639.25;;;10.61;96.12
498;BME280;39559;48.630;9.162;2023-03-14T10:43:34;95630.50;;;10.62;96.22
498;BME280;39559;48.630;9.162;2023-03-14T10:46:17;95624.78;;;10.70;95.51
498;BME280;39559;48.630;9.162;2023-03-14T10:48:44;95633.47;;;10.57;97.92
498;BME280;39559;48.630;9.162;2023-03-14T10:55:10;95654.97;;;10.71;98.26
498;BME280;39559;48.630;9.162;2023-03-14T10:57:40;95648.25;;;10.44;98.47
498;BME280;39559;48.630;9.162;2023-03-14T11:00:19;95641.41;;;10.43;98.91
498;BME280;39559;48.630;9.162;2023-03-14T11:05:56;95649.13;;;10.32;100.00
498;BME280;39559;48.630;9.162;2023-03-14T11:08:45;95677.84;;;10.29;100.00
498;BME280;39559;48.630;9.162;2023-03-14T11:11:20;95669.66;;;10.22;100.00
498;BME280;39559;48.630;9.162;2023-03-14T11:13:54;95675.00;;;10.08;100.00
498;BME280;39559;48.630;9.162;2023-03-14T11:21:32;95680.63;;;9.76;100.00
498;BME280;39559;48.630;9.162;2023-03-14T11:32:14;95696.38;;;9.86;100.00
498;BME280;39559;48.630;9.162;2023-03-14T11:34:52;95694.66;;;9.86;100.00
498;BME280;39559;48.630;9.162;2023-03-14T11:40:13;95694.31;;;9.52;100.00
498;BME280;39559;48.630;9.162;2023-03-14T11:43:17;95696.91;;;9.27;100.00
498;BME280;39559;48.630;9.162;2023-03-14T11:45:47;95695.03;;;9.29;100.00
498;BME280;39559;48.630;9.162;2023-03-14T11:51:24;95706.44;;;9.39;100.00
498;BME280;39559;48.630;9.162;2023-03-14T11:54:16;95700.00;;;9.32;100.00
498;BME280;39559;48.630;9.162;2023-03-14T11:59:26;95707.81;;;9.45;100.00
498;BME280;39559;48.630;9.162;2023-03-14T12:02:38;95719.41;;;9.39;100.00
498;BME280;39559;48.630;9.162;2023-03-14T12:06:51;95720.47;;;9.09;100.00
498;BME280;39559;48.630;9.162;2023-03-14T12:09:20;95734.78;;;8.88;100.00
498;BME280;39559;48.630;9.162;2023-03-14T12:11:55;95733.34;;;8.83;100.00
498;BME280;39559;48.630;9.162;2023-03-14T12:14:29;95752.91;;;8.88;100.00
498;BME280;39559;48.630;9.162;2023-03-14T12:17:24;95765.00;;;8.60;100.00
498;BME280;39559;48.630;9.162;2023-03-14T12:20:05;95772.69;;;8.47;100.00
498;BME280;39559;48.630;9.162;2023-03-14T12:22:44;95786.28;;;8.51;100.00
498;BME280;39559;48.630;9.162;2023-03-14T12:25:20;95783.50;;;8.54;100.00
498;BME280;39559;48.630;9.162;2023-03-14T12:30:50;95800.66;;;8.69;100.00
498;BME280;39559;48.630;9.162;2023-03-14T12:35:45;95822.69;;;8.48;100.00
498;BME280;39559;48.630;9.162;2023-03-14T12:38:26;95829.78;;;8.73;100.00
498;BME280;39559;48.630;9.162;2023-03-14T12:43:41;95835.81;;;8.59;100.00
498;BME280;39559;48.630;9.162;2023-03-14T12:48:39;95857.03;;;9.47;100.00
498;BME280;39559;48.630;9.162;2023-03-14T12:51:16;95861.44;;;10.25;99.45
498;BME280;39559;48.630;9.162;2023-03-14T12:55:10;95888.56;;;10.34;81.23
498;BME280;39559;48.630;9.162;2023-03-14T13:00:21;95911.91;;;10.72;74.20
498;BME280;39559;48.630;9.162;2023-03-14T13:02:49;95910.75;;;10.64;72.33
498;BME280;39559;48.630;9.162;2023-03-14T13:05:20;95918.63;;;10.75;72.28
498;BME280;39559;48.630;9.162;2023-03-14T13:15:32;95950.53;;;10.90;70.25
498;BME280;39559;48.630;9.162;2023-03-14T13:18:47;95974.59;;;11.18;68.56
498;BME280;39559;48.630;9.162;2023-03-14T13:21:17;96003.91;;;11.20;67.00
498;BME280;39559;48.630;9.162;2023-03-14T13:26:20;96033.81;;;9.38;69.31
498;BME280;39559;48.630;9.162;2023-03-14T13:28:46;96061.25;;;9.69;68.54
498;BME280;39559;48.630;9.162;2023-03-14T13:31:24;96065.84;;;9.37;70.47
498;BME280;39559;48.630;9.162;2023-03-14T13:34:05;96062.59;;;8.74;72.16
498;BME280;39559;48.630;9.162;2023-03-14T13:36:35;96071.69;;;8.51;70.64
498;BME280;39559;48.630;9.162;2023-03-14T13:39:01;96078.66;;;8.65;72.80
498;BME280;39559;48.630;9.162;2023-03-14T13:42:43;96099.19;;;8.06;76.17
498;BME280;39559;48.630;9.162;2023-03-14T13:45:12;96111.38;;;7.88;73.29
498;BME280;39559;48.630;9.162;2023-03-14T13:47:39;96147.00;;;7.65;74.24
498;BME280;39559;48.630;9.162;2023-03-14T13:50:05;96123.69;;;7.67;72.80
498;BME280;39559;48.630;9.162;2023-03-14T13:52:34;96126.59;;;7.61;71.60
498;BME280;39559;48.630;9.162;2023-03-14T13:55:02;96129.63;;;7.36;73.18
498;BME280;39559;48.630;9.162;2023-03-14T13:57:49;96146.63;;;7.40;73.68
498;BME280;39559;48.630;9.162;2023-03-14T14:00:25;96155.28;;;7.39;73.01
498;BME280;39559;48.630;9.162;2023-03-14T14:02:56;96161.34;;;7.38;73.15
498;BME280;39559;48.630;9.162;2023-03-14T14:07:00;96188.72;;;7.24;70.94
498;BME280;39559;48.630;9.162;2023-03-14T14:09:31;96173.06;;;7.27;70.47
498;BME280;39559;48.630;9.162;2023-03-14T14:12:12;96186.50;;;7.34;73.35
498;BME280;39559;48.630;9.162;2023-03-14T14:14:42;96184.53;;;7.39;71.92
498;BME280;39559;48.630;9.162;2023-03-14T14:17:11;96206.56;;;7.29;71.20
498;BME280;39559;48.630;9.162;2023-03-14T14:19:38;96205.66;;;7.30;69.80
498;BME280;39559;48.630;9.162;2023-03-14T14:22:06;96208.84;;;7.35;70.80
498;BME280;39559;48.630;9.162;2023-03-14T14:24:35;96209.00;;;7.32;69.68
498;BME280;39559;48.630;9.162;2023-03-14T14:27:18;96239.84;;;7.35;71.03
498;BME280;39559;48.630;9.162;2023-03-14T14:30:38;96232.00;;;7.37;68.10
498;BME280;39559;48.630;9.162;2023-03-14T14:33:18;96230.72;;;7.28;66.55
498;BME280;39559;48.630;9.162;2023-03-14T14:35:51;96242.03;;;7.25;67.66
498;BME280;39559;48.630;9.162;2023-03-14T14:38:17;96258.22;;;7.46;67.49
498;BME280;39559;48.630;9.162;2023-03-14T14:40:48;96256.91;;;7.38;66.77
498;BME280;39559;48.630;9.162;2023-03-14T14:43:18;96260.41;;;7.19;65.74
498;BME280;39559;48.630;9.162;2023-03-14T14:45:49;96264.13;;;7.14;65.00
498;BME280;39559;48.630;9.162;2023-03-14T14:48:22;96274.97;;;7.20;64.11
498;BME280;39559;48.630;9.162;2023-03-14T14:50:49;96277.09;;;7.12;65.20
498;BME280;39559;48.630;9.162;2023-03-14T14:54:38;96288.19;;;7.14;65.54
498;BME280;39559;48.630;9.162;2023-03-14T14:57:12;96280.13;;;7.03;65.25
498;BME280;39559;48.630;9.162;2023-03-14T14:59:42;96307.47;;;7.07;65.09
498;BME280;39559;48.630;9.162;2023-03-14T15:02:36;96294.19;;;7.15;64.59
498;BME280;39559;48.630;9.162;2023-03-14T15:05:08;96306.75;;;7.22;64.04
498;BME280;39559;48.630;9.162;2023-03-14T15:07:37;96300.66;;;7.23;66.34
498;BME280;39559;48.630;9.162;2023-03-14T15:10:02;96304.63;;;7.30;66.42
498;BME280;39559;48.630;9.162;2023-03-14T15:12:28;96306.13;;;7.17;66.06
498;BME280;39559;48.630;9.162;2023-03-14T15:14:53;96308.88;;;7.32;65.98
498;BME280;39559;48.630;9.162;2023-03-14T15:18:34;96308.81;;;7.50;66.09
498;BME280;39559;48.630;9.162;2023-03-14T15:20:59;96315.03;;;7.64;65.02
498;BME280;39559;48.630;9.162;2023-03-14T15:23:25;96322.09;;;7.95;63.90
498;BME280;39559;48.630;9.162;2023-03-14T15:25:50;96311.69;;;7.97;63.76
498;BME280;39559;48.630;9.162;2023-03-14T15:28:17;96323.34;;;7.53;63.77
498;BME280;39559;48.630;9.162;2023-03-14T15:30:43;96318.50;;;7.45;64.37